createdAt,value
2019-04-06T00:00:59.138Z,4.40
2019-04-06T00:01:59.092Z,3.70
2019-04-06T00:02:59.088Z,3.20
2019-04-06T00:03:59.073Z,4.20
2019-04-06T00:04:59.059Z,3.50
2019-04-06T00:05:59.056Z,3.30
2019-04-06T00:06:59.053Z,4.40
2019-04-06T00:07:59.056Z,3.90
2019-04-06T00:08:59.014Z,4.00
2019-04-06T00:09:59.007Z,4.70
2019-04-06T00:10:58.999Z,3.60
2019-04-06T00:11:58.984Z,4.40
2019-04-06T00:12:59.043Z,4.70
2019-04-06T00:13:59.005Z,4.20
2019-04-06T00:14:58.950Z,3.60
2019-04-06T00:15:58.940Z,4.90
2019-04-06T00:16:58.934Z,5.30
2019-04-06T00:17:58.919Z,3.80
2019-04-06T00:18:58.973Z,5.00
2019-04-06T00:19:58.899Z,3.90
2019-04-06T00:20:58.887Z,4.90
2019-04-06T00:21:58.876Z,3.90
2019-04-06T00:22:58.866Z,4.00
2019-04-06T00:23:58.867Z,5.20
2019-04-06T00:24:58.860Z,4.00
2019-04-06T00:25:58.845Z,5.00
2019-04-06T00:26:58.824Z,4.90
2019-04-06T00:27:58.812Z,3.80
2019-04-06T00:28:58.803Z,4.50
2019-04-06T00:29:58.820Z,3.80
2019-04-06T00:30:58.793Z,4.50
2019-04-06T00:31:58.772Z,4.20
2019-04-06T00:32:58.768Z,4.20
2019-04-06T00:33:58.749Z,4.60
2019-04-06T00:34:58.736Z,4.40
2019-04-06T00:35:58.726Z,4.30
2019-04-06T00:36:58.729Z,4.00
2019-04-06T00:37:58.711Z,4.10
2019-04-06T00:38:58.698Z,3.50
2019-04-06T00:39:58.685Z,4.00
2019-04-06T00:40:58.676Z,3.30
2019-04-06T00:41:58.667Z,4.10
2019-04-06T00:42:58.674Z,4.50
2019-04-06T00:43:58.643Z,4.50
2019-04-06T00:44:58.633Z,4.80
2019-04-06T00:45:58.629Z,3.40
2019-04-06T00:46:58.611Z,3.40
2019-04-06T00:47:58.602Z,4.40
2019-04-06T00:48:58.605Z,4.10
2019-04-06T00:49:58.579Z,4.00
2019-04-06T00:50:58.610Z,4.10
2019-04-06T00:51:58.560Z,4.20
2019-04-06T00:52:58.547Z,4.00
2019-04-06T00:53:58.537Z,4.00
2019-04-06T00:54:58.547Z,4.20
2019-04-06T00:55:58.512Z,4.10
2019-04-06T00:56:58.502Z,4.00
2019-04-06T00:57:58.495Z,4.20
2019-04-06T00:58:58.484Z,4.80
2019-04-06T00:59:58.475Z,4.40
2019-04-06T01:00:58.488Z,3.50
2019-04-06T01:01:58.452Z,4.20
2019-04-06T01:02:58.442Z,4.40
2019-04-06T01:03:58.433Z,3.60
2019-04-06T01:04:58.420Z,4.80
2019-04-06T01:05:58.410Z,4.80
2019-04-06T01:06:58.417Z,4.80
2019-04-06T01:07:58.396Z,4.50
2019-04-06T01:08:58.379Z,4.70
2019-04-06T01:09:58.369Z,4.30
2019-04-06T01:10:58.396Z,4.50
2019-04-06T01:11:58.348Z,5.80
2019-04-06T01:12:58.353Z,4.20
2019-04-06T01:13:58.392Z,4.10
2019-04-06T01:14:58.331Z,4.80
2019-04-06T01:15:58.305Z,4.30
2019-04-06T01:16:58.340Z,4.70
2019-04-06T01:17:58.283Z,4.30
2019-04-06T01:18:58.287Z,4.30
2019-04-06T01:19:58.269Z,4.90
2019-04-06T01:20:58.255Z,4.70
2019-04-06T01:21:58.242Z,4.40
2019-04-06T01:22:58.233Z,3.70
2019-04-06T01:23:58.223Z,5.00
2019-04-06T01:24:58.229Z,4.30
2019-04-06T01:26:06.625Z,4.30
2019-04-06T01:26:59.193Z,4.30
2019-04-06T01:27:58.177Z,5.00
2019-04-06T01:28:58.165Z,4.50
2019-04-06T01:29:58.209Z,4.60
2019-04-06T01:30:58.181Z,4.40
2019-04-06T01:31:58.159Z,4.50
2019-04-06T01:32:58.126Z,4.00
2019-04-06T01:33:59.158Z,3.70
2019-04-06T01:34:58.117Z,4.80
2019-04-06T01:35:58.091Z,3.90
2019-04-06T01:36:58.155Z,4.40
2019-04-06T01:37:58.078Z,4.30
2019-04-06T01:38:58.061Z,4.40
2019-04-06T01:39:58.069Z,3.60
2019-04-06T01:40:58.045Z,4.40
2019-04-06T01:41:58.035Z,3.90
2019-04-06T01:42:58.118Z,4.90
2019-04-06T01:43:58.010Z,3.90
2019-04-06T01:44:58.007Z,5.00
2019-04-06T01:45:57.988Z,4.20
2019-04-06T01:46:57.978Z,4.60
2019-04-06T01:47:57.969Z,4.60
2019-04-06T01:48:57.975Z,4.70
2019-04-06T01:49:57.948Z,4.50
2019-04-06T01:50:57.962Z,5.60
2019-04-06T01:51:57.926Z,5.50
2019-04-06T01:52:57.937Z,4.70
2019-04-06T01:53:57.925Z,4.70
2019-04-06T01:54:59.116Z,4.90
2019-04-06T01:55:57.884Z,4.70
2019-04-06T01:56:57.881Z,4.70
2019-04-06T01:57:57.864Z,4.80
2019-04-06T01:58:57.851Z,4.10
2019-04-06T01:59:57.843Z,4.50
2019-04-06T02:00:57.849Z,4.40
2019-04-06T02:01:57.821Z,4.70
2019-04-06T02:02:57.810Z,5.20
2019-04-06T02:03:57.800Z,3.90
2019-04-06T02:04:57.791Z,4.10
2019-04-06T02:05:57.777Z,4.60
2019-04-06T02:06:57.782Z,4.30
2019-04-06T02:07:57.760Z,5.10
2019-04-06T02:08:57.746Z,4.90
2019-04-06T02:09:57.744Z,4.10
2019-04-06T02:10:57.726Z,4.30
2019-04-06T02:11:57.717Z,5.00
2019-04-06T02:12:57.860Z,5.00
2019-04-06T02:13:57.694Z,3.70
2019-04-06T02:14:57.686Z,4.10
2019-04-06T02:15:57.671Z,4.50
2019-04-06T02:16:57.677Z,4.80
2019-04-06T02:17:57.653Z,4.60
2019-04-06T02:18:57.658Z,4.90
2019-04-06T02:19:57.629Z,4.70
2019-04-06T02:20:57.620Z,4.30
2019-04-06T02:21:57.613Z,5.30
2019-04-06T02:22:57.598Z,4.50
2019-04-06T02:23:57.588Z,5.20
2019-04-06T02:24:57.735Z,4.70
2019-04-06T02:25:57.568Z,4.60
2019-04-06T02:26:57.574Z,5.20
2019-04-06T02:27:57.543Z,4.40
2019-04-06T02:28:57.564Z,4.70
2019-04-06T02:29:57.531Z,4.90
2019-04-06T02:30:57.592Z,4.60
2019-04-06T02:31:57.509Z,3.90
2019-04-06T02:32:57.500Z,4.00
2019-04-06T02:33:57.486Z,4.70
2019-04-06T02:34:57.475Z,4.20
2019-04-06T02:35:57.625Z,5.20
2019-04-06T02:36:57.486Z,4.80
2019-04-06T02:37:57.474Z,5.00
2019-04-06T02:38:57.444Z,4.40
2019-04-06T02:39:57.420Z,5.00
2019-04-06T02:40:57.467Z,4.90
2019-04-06T02:41:57.576Z,5.00
2019-04-06T02:42:57.409Z,4.80
2019-04-06T02:43:57.380Z,4.70
2019-04-06T02:44:57.372Z,4.60
2019-04-06T02:45:57.365Z,5.40
2019-04-06T02:46:57.503Z,4.40
2019-04-06T02:47:57.339Z,4.30
2019-04-06T02:48:57.361Z,5.00
2019-04-06T02:49:57.326Z,5.20
2019-04-06T02:50:57.477Z,3.90
2019-04-06T02:51:57.297Z,5.10
2019-04-06T02:52:57.286Z,4.40
2019-04-06T02:53:57.272Z,5.40
2019-04-06T02:54:57.344Z,4.80
2019-04-06T02:55:57.254Z,4.80
2019-04-06T02:56:57.241Z,4.80
2019-04-06T02:57:57.326Z,4.90
2019-04-06T02:58:57.222Z,5.40
2019-04-06T02:59:57.267Z,5.60
2019-04-06T03:00:57.219Z,4.80
2019-04-06T03:01:57.444Z,5.00
2019-04-06T03:02:57.180Z,5.10
2019-04-06T03:03:57.170Z,5.20
2019-04-06T03:04:57.170Z,4.70
2019-04-06T03:05:57.224Z,5.70
2019-04-06T03:06:57.154Z,4.70
2019-04-06T03:07:57.131Z,4.80
2019-04-06T03:08:57.143Z,5.50
2019-04-06T03:09:57.108Z,5.20
2019-04-06T03:10:57.099Z,5.10
2019-04-06T03:11:57.274Z,4.00
2019-04-06T03:12:57.132Z,4.70
2019-04-06T03:13:57.065Z,4.40
2019-04-06T03:14:57.057Z,4.40
2019-04-06T03:15:57.045Z,4.40
2019-04-06T03:16:57.044Z,5.10
2019-04-06T03:17:57.023Z,4.40
2019-04-06T03:18:57.029Z,4.10
2019-04-06T03:19:57.024Z,4.70
2019-04-06T03:20:56.990Z,5.10
2019-04-06T03:21:56.988Z,4.50
2019-04-06T03:22:56.974Z,5.70
2019-04-06T03:23:57.035Z,4.60
2019-04-06T03:24:57.006Z,5.30
2019-04-06T03:25:56.943Z,4.80
2019-04-06T03:27:02.250Z,5.00
2019-04-06T03:29:06.809Z,4.60
2019-04-06T03:30:06.999Z,5.10
2019-04-06T03:31:06.818Z,4.80
2019-04-06T03:32:07.179Z,5.20
2019-04-06T03:33:06.765Z,4.60
2019-04-06T03:34:06.781Z,5.30
2019-04-06T03:35:06.836Z,4.90
2019-04-06T03:36:06.757Z,5.20
2019-04-06T03:37:06.719Z,5.10
2019-04-06T03:38:06.716Z,4.70
2019-04-06T03:39:06.705Z,5.30
2019-04-06T03:40:06.841Z,4.20
2019-04-06T03:41:06.713Z,5.40
2019-04-06T03:42:06.739Z,4.80
2019-04-06T03:43:06.672Z,4.70
2019-04-06T03:44:06.656Z,4.80
2019-04-06T03:45:06.645Z,5.00
2019-04-06T03:46:06.637Z,5.20
2019-04-06T03:47:06.620Z,4.80
2019-04-06T03:48:06.629Z,5.40
2019-04-06T03:49:06.601Z,4.60
2019-04-06T03:50:06.594Z,6.20
2019-04-06T03:51:06.577Z,5.00
2019-04-06T03:52:06.579Z,4.60
2019-04-06T03:53:06.573Z,5.50
2019-04-06T03:54:06.585Z,4.60
2019-04-06T03:55:06.549Z,5.20
2019-04-06T03:56:06.683Z,5.00
2019-04-06T03:57:14.601Z,5.50
2019-04-06T03:58:07.509Z,5.00
2019-04-06T03:59:06.575Z,5.80
2019-04-06T04:00:06.525Z,4.40
2019-04-06T04:01:06.495Z,5.20
2019-04-06T04:02:06.474Z,5.20
2019-04-06T04:03:06.452Z,5.60
2019-04-06T04:04:06.654Z,4.40
2019-04-06T04:05:06.440Z,5.40
2019-04-06T04:06:06.446Z,5.00
2019-04-06T04:07:06.421Z,5.40
2019-04-06T04:08:06.442Z,4.70
2019-04-06T04:09:06.396Z,5.90
2019-04-06T04:10:06.388Z,5.30
2019-04-06T04:11:06.395Z,5.10
2019-04-06T04:12:06.412Z,5.40
2019-04-06T04:13:06.359Z,6.00
2019-04-06T04:14:06.345Z,5.40
2019-04-06T04:15:06.337Z,5.50
2019-04-06T04:16:06.331Z,5.10
2019-04-06T04:17:06.317Z,4.80
2019-04-06T04:18:06.320Z,4.30
2019-04-06T04:19:06.290Z,5.10
2019-04-06T04:20:06.636Z,4.50
2019-04-06T04:21:06.293Z,5.40
2019-04-06T04:22:06.268Z,5.70
2019-04-06T04:23:06.249Z,5.80
2019-04-06T04:24:06.261Z,4.30
2019-04-06T04:25:06.231Z,5.00
2019-04-06T04:26:06.222Z,5.40
2019-04-06T04:27:06.381Z,4.60
2019-04-06T04:28:06.198Z,4.90
2019-04-06T04:29:06.214Z,4.90
2019-04-06T04:30:06.190Z,6.00
2019-04-06T04:31:06.167Z,4.90
2019-04-06T04:32:06.158Z,5.20
2019-04-06T04:33:06.153Z,4.90
2019-04-06T04:34:06.142Z,5.20
2019-04-06T04:35:06.316Z,5.40
2019-04-06T04:36:06.132Z,4.70
2019-04-06T04:37:06.107Z,6.20
2019-04-06T04:38:06.136Z,5.20
2019-04-06T04:39:06.088Z,5.20
2019-04-06T04:40:06.076Z,4.80
2019-04-06T04:41:06.065Z,5.00
2019-04-06T04:42:06.079Z,5.10
2019-04-06T04:43:06.040Z,5.30
2019-04-06T04:44:06.033Z,4.80
2019-04-06T04:45:06.074Z,4.90
2019-04-06T04:46:06.018Z,5.40
2019-04-06T04:47:06.183Z,4.80
2019-04-06T04:48:06.011Z,4.30
2019-04-06T04:49:06.175Z,4.00
2019-04-06T04:50:05.969Z,5.50
2019-04-06T04:51:05.975Z,5.30
2019-04-06T04:52:05.956Z,4.10
2019-04-06T04:53:05.941Z,4.30
2019-04-06T04:54:05.952Z,4.40
2019-04-06T04:55:05.922Z,5.50
2019-04-06T04:56:05.916Z,4.80
2019-04-06T04:57:06.057Z,5.40
2019-04-06T04:58:05.889Z,5.10
2019-04-06T04:59:05.874Z,4.70
2019-04-06T05:00:05.918Z,5.50
2019-04-06T05:01:05.863Z,4.70
2019-04-06T05:02:05.883Z,5.30
2019-04-06T05:03:05.839Z,4.70
2019-04-06T05:04:05.852Z,4.70
2019-04-06T05:05:05.822Z,4.80
2019-04-06T05:06:05.910Z,4.50
2019-04-06T05:07:05.807Z,4.40
2019-04-06T05:08:05.799Z,4.30
2019-04-06T05:09:05.925Z,4.70
2019-04-06T05:10:05.784Z,5.10
2019-04-06T05:11:05.767Z,5.80
2019-04-06T05:12:05.808Z,5.30
2019-04-06T05:13:05.739Z,5.60
2019-04-06T05:14:05.745Z,4.60
2019-04-06T05:15:05.721Z,5.40
2019-04-06T05:16:05.730Z,4.50
2019-04-06T05:17:05.693Z,4.90
2019-04-06T05:18:05.767Z,5.30
2019-04-06T05:19:05.768Z,5.80
2019-04-06T05:20:05.659Z,4.50
2019-04-06T05:21:05.649Z,4.40
2019-04-06T05:22:05.647Z,4.50
2019-04-06T05:23:05.630Z,4.70
2019-04-06T05:24:05.637Z,5.50
2019-04-06T05:25:05.655Z,4.60
2019-04-06T05:26:05.598Z,5.40
2019-04-06T05:27:05.592Z,4.00
2019-04-06T05:28:05.589Z,4.30
2019-04-06T05:29:05.694Z,4.20
2019-04-06T05:30:05.582Z,5.10
2019-04-06T05:31:05.672Z,3.90
2019-04-06T05:32:05.537Z,4.50
2019-04-06T05:33:05.576Z,4.60
2019-04-06T05:34:05.525Z,4.80
2019-04-06T05:35:05.508Z,4.30
2019-04-06T05:36:05.515Z,4.90
2019-04-06T05:37:05.484Z,4.90
2019-04-06T05:38:05.475Z,4.30
2019-04-06T05:39:05.465Z,5.50
2019-04-06T05:40:05.454Z,5.60
2019-04-06T05:41:05.442Z,5.20
2019-04-06T05:42:05.448Z,4.00
2019-04-06T05:43:05.585Z,4.30
2019-04-06T05:44:05.413Z,4.50
2019-04-06T05:45:05.401Z,4.10
2019-04-06T05:46:05.392Z,4.20
2019-04-06T05:47:05.378Z,4.10
2019-04-06T05:48:05.378Z,4.60
2019-04-06T05:49:05.399Z,4.30
2019-04-06T05:50:05.363Z,4.50
2019-04-06T05:51:05.340Z,3.80
2019-04-06T05:52:05.334Z,4.40
2019-04-06T05:53:05.393Z,4.00
2019-04-06T05:54:05.444Z,3.80
2019-04-06T05:55:05.298Z,4.80
2019-04-06T05:56:05.288Z,4.60
2019-04-06T05:57:05.279Z,4.40
2019-04-06T05:58:09.687Z,4.00
2019-04-06T05:59:08.249Z,4.10
2019-04-06T06:00:05.254Z,4.20
2019-04-06T06:01:05.243Z,4.70
2019-04-06T06:02:05.230Z,4.50
2019-04-06T06:03:05.221Z,4.30
2019-04-06T06:04:05.204Z,5.30
2019-04-06T06:05:05.204Z,3.60
2019-04-06T06:06:05.185Z,4.70
2019-04-06T06:07:05.172Z,5.10
2019-04-06T06:08:05.159Z,4.00
2019-04-06T06:09:05.498Z,4.20
2019-04-06T06:10:05.140Z,4.10
2019-04-06T06:11:05.147Z,4.00
2019-04-06T06:12:05.121Z,4.80
2019-04-06T06:13:05.156Z,4.50
2019-04-06T06:14:05.098Z,4.90
2019-04-06T06:15:05.200Z,4.30
2019-04-06T06:16:05.078Z,4.10
2019-04-06T06:17:05.086Z,4.30
2019-04-06T06:18:05.157Z,4.60
2019-04-06T06:19:05.119Z,4.80
2019-04-06T06:20:05.036Z,4.40
2019-04-06T06:21:05.033Z,4.20
2019-04-06T06:22:05.016Z,4.70
2019-04-06T06:23:05.020Z,4.00
2019-04-06T06:24:05.005Z,3.80
2019-04-06T06:25:05.017Z,4.50
2019-04-06T06:26:04.997Z,3.60
2019-04-06T06:27:04.966Z,5.30
2019-04-06T06:28:13.856Z,4.30
2019-04-06T06:29:05.965Z,4.30
2019-04-06T06:30:04.941Z,3.80
2019-04-06T06:31:04.920Z,4.40
2019-04-06T06:32:04.933Z,4.30
2019-04-06T06:33:04.904Z,3.90
2019-04-06T06:34:04.888Z,4.30
2019-04-06T06:35:04.895Z,4.40
2019-04-06T06:36:04.868Z,4.50
2019-04-06T06:37:04.883Z,4.70
2019-04-06T06:38:04.929Z,4.60
2019-04-06T06:39:05.012Z,3.60
2019-04-06T06:40:04.824Z,4.50
2019-04-06T06:41:04.826Z,4.70
2019-04-06T06:42:04.804Z,4.60
2019-04-06T06:43:04.792Z,3.90
2019-04-06T06:44:04.795Z,4.60
2019-04-06T06:45:04.785Z,3.90
2019-04-06T06:46:04.766Z,4.20
2019-04-06T06:47:04.774Z,4.30
2019-04-06T06:48:04.740Z,3.90
2019-04-06T06:49:04.731Z,4.20
2019-04-06T06:50:04.744Z,3.40
2019-04-06T06:51:04.727Z,4.00
2019-04-06T06:52:04.703Z,3.40
2019-04-06T06:53:04.833Z,3.40
2019-04-06T06:54:04.680Z,4.50
2019-04-06T06:55:04.714Z,4.20
2019-04-06T06:56:04.659Z,4.40
2019-04-06T06:57:04.662Z,4.00
2019-04-06T06:58:04.637Z,3.70
2019-04-06T07:01:00.448Z,4.60
2019-04-06T07:02:00.432Z,4.10
2019-04-06T07:03:00.449Z,3.90
2019-04-06T07:04:00.410Z,5.10
2019-04-06T07:05:00.397Z,4.40
2019-04-06T07:06:00.381Z,4.70
2019-04-06T07:07:00.479Z,3.90
2019-04-06T07:08:00.362Z,4.70
2019-04-06T07:09:00.513Z,3.90
2019-04-06T07:10:07.609Z,5.10
2019-04-06T07:11:00.334Z,3.70
2019-04-06T07:12:00.320Z,4.00
2019-04-06T07:13:00.553Z,4.10
2019-04-06T07:14:00.352Z,4.30
2019-04-06T07:15:00.283Z,3.70
2019-04-06T07:16:00.274Z,3.90
2019-04-06T07:17:00.266Z,3.60
2019-04-06T07:18:00.251Z,3.50
2019-04-06T07:19:00.254Z,3.60
2019-04-06T07:20:00.225Z,3.60
2019-04-06T07:21:00.460Z,3.80
2019-04-06T07:22:00.211Z,3.50
2019-04-06T07:23:00.187Z,3.80
2019-04-06T07:24:00.184Z,4.30
2019-04-06T07:25:00.396Z,3.50
2019-04-06T07:26:00.278Z,3.90
2019-04-06T07:27:00.149Z,4.10
2019-04-06T07:28:00.144Z,4.00
2019-04-06T07:29:00.143Z,4.10
2019-04-06T07:30:00.118Z,4.60
2019-04-06T07:31:00.122Z,4.40
2019-04-06T07:32:00.097Z,3.50
2019-04-06T07:33:00.183Z,4.20
2019-04-06T07:34:00.074Z,4.80
2019-04-06T07:35:00.180Z,4.50
2019-04-06T07:36:00.197Z,4.50
2019-04-06T07:37:00.059Z,3.60
2019-04-06T07:38:00.029Z,3.90
2019-04-06T07:39:00.020Z,4.30
2019-04-06T07:40:00.098Z,4.70
2019-04-06T07:41:01.244Z,3.70
2019-04-06T07:42:00.975Z,4.80
2019-04-06T07:43:00.654Z,4.00
2019-04-06T07:43:59.965Z,4.20
2019-04-06T07:45:00.077Z,4.20
2019-04-06T07:45:59.943Z,4.20
2019-04-06T07:46:59.933Z,4.40
2019-04-06T07:47:59.924Z,4.40
2019-04-06T07:49:08.378Z,4.20
2019-04-06T07:50:00.898Z,4.50
2019-04-06T07:50:59.892Z,4.70
2019-04-06T07:51:59.883Z,4.30
2019-04-06T07:52:59.871Z,4.70
2019-04-06T07:53:59.856Z,3.50
2019-04-06T07:55:00.049Z,4.80
2019-04-06T07:55:59.839Z,3.60
2019-04-06T07:56:59.992Z,3.80
2019-04-06T07:57:59.817Z,3.60
2019-04-06T07:58:59.801Z,4.10
2019-04-06T07:59:59.798Z,4.80
2019-04-06T08:00:59.795Z,4.60
2019-04-06T08:01:59.778Z,5.30
2019-04-06T08:02:59.764Z,4.00
2019-04-06T08:03:59.750Z,4.60
2019-04-06T08:04:59.737Z,4.10
2019-04-06T08:05:59.729Z,4.10
2019-04-06T08:06:59.727Z,4.50
2019-04-06T08:07:59.726Z,4.80
2019-04-06T08:08:59.694Z,4.00
2019-04-06T08:09:59.897Z,5.00
2019-04-06T08:10:59.672Z,3.90
2019-04-06T08:11:59.658Z,4.30
2019-04-06T08:12:59.664Z,4.30
2019-04-06T08:13:59.639Z,4.20
2019-04-06T08:14:59.625Z,3.90
2019-04-06T08:15:59.845Z,3.80
2019-04-06T08:16:59.718Z,4.50
2019-04-06T08:18:00.272Z,4.60
2019-04-06T08:18:59.720Z,4.50
2019-04-06T08:19:59.572Z,4.00
2019-04-06T08:20:59.560Z,4.20
2019-04-06T08:21:59.558Z,5.10
2019-04-06T08:22:59.542Z,4.70
2019-04-06T08:23:59.528Z,4.60
2019-04-06T08:24:59.532Z,4.20
2019-04-06T08:25:59.507Z,4.70
2019-04-06T08:26:59.493Z,4.20
2019-04-06T08:27:59.647Z,4.00
2019-04-06T08:29:02.226Z,4.20
2019-04-06T08:29:59.461Z,5.20
2019-04-06T08:30:59.473Z,4.30
2019-04-06T08:31:59.475Z,4.10
2019-04-06T08:32:59.503Z,4.50
2019-04-06T08:33:59.458Z,5.50
2019-04-06T08:34:59.406Z,4.70
2019-04-06T08:35:59.397Z,4.40
2019-04-06T08:36:59.407Z,5.30
2019-04-06T08:37:59.375Z,5.80
2019-04-06T08:38:59.361Z,4.60
2019-04-06T08:39:59.361Z,4.10
2019-04-06T08:40:59.343Z,5.00
2019-04-06T08:41:59.333Z,4.50
2019-04-06T08:42:59.339Z,4.50
2019-04-06T08:43:59.311Z,4.10
2019-04-06T08:44:59.298Z,4.40
2019-04-06T08:45:59.286Z,4.20
2019-04-06T08:46:59.278Z,4.60
2019-04-06T08:47:59.267Z,4.80
2019-04-06T08:48:59.271Z,3.90
2019-04-06T08:49:59.241Z,4.80
2019-04-06T08:50:59.237Z,4.60
2019-04-06T08:51:59.387Z,4.80
2019-04-06T08:52:59.216Z,4.50
2019-04-06T08:53:59.197Z,4.90
2019-04-06T08:54:59.203Z,4.80
2019-04-06T08:55:59.177Z,4.50
2019-04-06T08:56:59.165Z,4.20
2019-04-06T08:57:59.174Z,4.30
2019-04-06T08:59:10.145Z,4.50
2019-04-06T09:00:00.267Z,4.50
2019-04-06T09:00:59.120Z,4.20
2019-04-06T09:01:59.113Z,4.40
2019-04-06T09:02:59.341Z,4.50
2019-04-06T09:03:59.088Z,4.40
2019-04-06T09:04:59.076Z,4.90
2019-04-06T09:05:59.085Z,4.70
2019-04-06T09:06:59.056Z,4.40
2019-04-06T09:07:59.044Z,4.30
2019-04-06T09:08:59.032Z,5.20
2019-04-06T09:09:59.021Z,4.30
2019-04-06T09:10:59.009Z,4.60
2019-04-06T09:11:59.018Z,4.90
2019-04-06T09:12:58.990Z,4.70
2019-04-06T09:13:58.992Z,3.90
2019-04-06T09:14:59.027Z,4.30
2019-04-06T09:15:58.971Z,4.10
2019-04-06T09:16:59.232Z,4.40
2019-04-06T09:17:58.983Z,4.30
2019-04-06T09:18:58.925Z,4.40
2019-04-06T09:19:59.066Z,4.50
2019-04-06T09:20:59.317Z,4.30
2019-04-06T09:21:58.932Z,4.30
2019-04-06T09:22:58.884Z,3.90
2019-04-06T09:23:59.304Z,4.70
2019-04-06T09:24:59.223Z,4.20
2019-04-06T09:25:59.631Z,3.80
2019-04-06T09:26:58.832Z,4.20
2019-04-06T09:27:58.971Z,4.30
2019-04-06T09:28:59.720Z,3.70
2019-04-06T09:29:58.823Z,4.40
2019-04-06T09:30:58.792Z,3.90
2019-04-06T09:31:58.776Z,3.40
2019-04-06T09:32:58.772Z,4.50
2019-04-06T09:33:58.815Z,3.70
2019-04-06T09:34:58.776Z,3.60
2019-04-06T09:35:58.782Z,3.20
2019-04-06T09:36:58.724Z,3.40
2019-04-06T09:37:58.813Z,2.90
2019-04-06T09:38:58.701Z,3.60
2019-04-06T09:39:58.696Z,4.50
2019-04-06T09:40:58.720Z,4.10
2019-04-06T09:41:58.691Z,3.50
2019-04-06T09:42:58.865Z,3.20
2019-04-06T09:43:58.647Z,3.90
2019-04-06T09:44:58.639Z,3.40
2019-04-06T09:45:58.625Z,3.50
2019-04-06T09:46:58.615Z,3.40
2019-04-06T09:47:58.621Z,3.70
2019-04-06T09:48:58.603Z,3.50
2019-04-06T09:49:58.584Z,3.80
2019-04-06T09:50:58.571Z,2.70
2019-04-06T09:51:58.561Z,3.60
2019-04-06T09:52:58.684Z,3.40
2019-04-06T09:54:05.639Z,3.60
2019-04-06T09:54:59.744Z,3.70
2019-04-06T09:55:58.520Z,3.20
2019-04-06T09:56:58.509Z,3.20
2019-04-06T09:57:58.497Z,3.40
2019-04-06T09:58:58.643Z,3.30
2019-04-06T09:59:58.491Z,3.90
2019-04-06T10:00:58.460Z,3.60
2019-04-06T10:01:58.455Z,3.60
2019-04-06T10:02:58.440Z,3.60
2019-04-06T10:03:58.544Z,3.60
2019-04-06T10:04:58.419Z,3.50
2019-04-06T10:05:58.565Z,2.90
2019-04-06T10:06:58.401Z,3.70
2019-04-06T10:07:58.387Z,3.30
2019-04-06T10:08:58.680Z,3.00
2019-04-06T10:09:58.964Z,3.30
2019-04-06T10:10:58.354Z,3.30
2019-04-06T10:11:58.361Z,3.10
2019-04-06T10:12:58.332Z,3.10
2019-04-06T10:13:58.603Z,3.60
2019-04-06T10:14:58.312Z,3.00
2019-04-06T10:15:58.304Z,2.90
2019-04-06T10:16:58.303Z,3.10
2019-04-06T10:17:58.300Z,3.60
2019-04-06T10:18:58.269Z,3.40
2019-04-06T10:19:58.261Z,3.70
2019-04-06T10:20:58.527Z,3.30
2019-04-06T10:21:58.338Z,3.00
2019-04-06T10:22:58.333Z,3.40
2019-04-06T10:23:58.230Z,2.70
2019-04-06T10:24:58.201Z,3.20
2019-04-06T10:25:58.192Z,3.20
2019-04-06T10:26:58.373Z,3.40
2019-04-06T10:27:58.336Z,3.20
2019-04-06T10:28:58.159Z,3.30
2019-04-06T10:29:58.240Z,3.10
2019-04-06T10:30:58.140Z,3.60
2019-04-06T10:31:58.130Z,3.00
2019-04-06T10:32:58.117Z,3.20
2019-04-06T10:33:58.104Z,3.50
2019-04-06T10:34:58.178Z,3.30
2019-04-06T10:35:58.099Z,2.80
2019-04-06T10:36:58.076Z,3.10
2019-04-06T10:37:58.102Z,3.10
2019-04-06T10:38:58.053Z,2.90
2019-04-06T10:39:58.357Z,2.80
2019-04-06T10:40:58.027Z,3.30
2019-04-06T10:41:58.033Z,3.20
2019-04-06T10:42:58.005Z,3.20
2019-04-06T10:43:57.998Z,3.20
2019-04-06T10:44:58.078Z,3.10
2019-04-06T10:45:57.973Z,3.50
2019-04-06T10:46:57.960Z,3.40
2019-04-06T10:47:58.081Z,3.40
2019-04-06T10:48:57.944Z,3.60
2019-04-06T10:49:58.222Z,3.60
2019-04-06T10:50:57.921Z,3.50
2019-04-06T10:51:57.912Z,2.80
2019-04-06T10:52:57.899Z,3.30
2019-04-06T10:53:57.906Z,3.10
2019-04-06T10:54:58.115Z,3.20
2019-04-06T10:55:58.125Z,2.70
2019-04-06T10:56:57.852Z,2.70
2019-04-06T10:57:58.104Z,3.10
2019-04-06T10:58:58.096Z,3.00
2019-04-06T11:00:01.445Z,2.30
2019-04-06T11:00:59.086Z,2.50
2019-04-06T11:01:57.860Z,3.10
2019-04-06T11:02:57.789Z,2.60
2019-04-06T11:03:57.785Z,2.60
2019-04-06T11:04:57.913Z,2.20
2019-04-06T11:05:57.771Z,2.50
2019-04-06T11:06:57.747Z,2.40
2019-04-06T11:07:57.744Z,2.50
2019-04-06T11:08:57.730Z,2.10
2019-04-06T11:09:57.714Z,2.10
2019-04-06T11:10:57.922Z,2.40
2019-04-06T11:11:57.777Z,1.90
2019-04-06T11:12:57.676Z,2.10
2019-04-06T11:13:57.671Z,2.20
2019-04-06T11:14:57.872Z,2.00
2019-04-06T11:15:57.641Z,2.30
2019-04-06T11:16:57.741Z,2.20
2019-04-06T11:17:57.646Z,2.00
2019-04-06T11:18:57.614Z,2.20
2019-04-06T11:19:57.614Z,2.30
2019-04-06T11:20:57.733Z,2.30
2019-04-06T11:21:57.576Z,2.70
2019-04-06T11:22:57.568Z,2.60
2019-04-06T11:23:57.602Z,2.20
2019-04-06T11:24:57.547Z,2.60
2019-04-06T11:25:57.534Z,3.10
2019-04-06T11:26:57.525Z,2.10
2019-04-06T11:27:57.514Z,2.50
2019-04-06T11:28:57.503Z,2.10
2019-04-06T11:29:57.505Z,2.10
2019-04-06T11:30:57.479Z,2.40
2019-04-06T11:31:57.466Z,2.00
2019-04-06T11:32:57.457Z,2.50
2019-04-06T11:33:57.444Z,2.80
2019-04-06T11:34:57.480Z,3.00
2019-04-06T11:35:57.463Z,2.40
2019-04-06T11:36:57.414Z,2.20
2019-04-06T11:37:57.664Z,2.30
2019-04-06T11:38:57.394Z,2.10
2019-04-06T11:39:57.380Z,1.90
2019-04-06T11:40:57.597Z,2.30
2019-04-06T11:41:57.367Z,2.70
2019-04-06T11:42:57.346Z,2.20
2019-04-06T11:43:57.386Z,2.10
2019-04-06T11:44:57.333Z,2.40
2019-04-06T11:45:57.312Z,2.30
2019-04-06T11:46:57.303Z,2.10
2019-04-06T11:47:57.313Z,2.40
2019-04-06T11:48:57.332Z,2.50
2019-04-06T11:49:57.271Z,2.60
2019-04-06T11:50:57.313Z,2.30
2019-04-06T11:51:57.257Z,2.50
2019-04-06T11:52:57.235Z,2.30
2019-04-06T11:53:57.246Z,2.10
2019-04-06T11:54:57.213Z,2.50
2019-04-06T11:55:57.203Z,2.70
2019-04-06T11:56:57.194Z,1.90
2019-04-06T11:57:57.712Z,2.50
2019-04-06T11:58:57.171Z,2.20
2019-04-06T11:59:57.627Z,2.60
2019-04-06T12:00:57.151Z,2.90
2019-04-06T12:01:57.241Z,3.30
2019-04-06T12:02:57.126Z,3.10
2019-04-06T12:03:57.117Z,2.80
2019-04-06T12:04:57.104Z,3.40
2019-04-06T12:05:57.107Z,2.90
2019-04-06T12:06:57.085Z,3.30
2019-04-06T12:07:57.072Z,3.20
2019-04-06T12:08:57.351Z,3.60
2019-04-06T12:09:57.049Z,3.50
2019-04-06T12:10:57.043Z,3.20
2019-04-06T12:11:57.057Z,3.40
2019-04-06T12:12:57.019Z,3.30
2019-04-06T12:13:57.007Z,3.50
2019-04-06T12:14:56.995Z,3.80
2019-04-06T12:15:56.985Z,3.40
2019-04-06T12:16:56.976Z,3.70
2019-04-06T12:17:56.975Z,3.60
2019-04-06T12:18:57.151Z,4.20
2019-04-06T12:19:56.941Z,3.30
2019-04-06T12:20:56.945Z,3.20
2019-04-06T12:21:57.118Z,2.90
2019-04-06T12:22:56.910Z,3.70
2019-04-06T12:23:56.990Z,3.40
2019-04-06T12:24:56.884Z,3.50
2019-04-06T12:25:56.992Z,3.90
2019-04-06T12:26:56.862Z,3.50
2019-04-06T12:27:56.852Z,3.30
2019-04-06T12:28:56.844Z,3.50
2019-04-06T12:29:56.979Z,3.60
2019-04-06T12:30:57.077Z,3.30
2019-04-06T12:31:56.808Z,3.20
2019-04-06T12:32:57.126Z,3.50
2019-04-06T12:33:56.788Z,3.80
2019-04-06T12:34:56.775Z,3.10
2019-04-06T12:35:56.778Z,3.90
2019-04-06T12:36:56.938Z,3.10
2019-04-06T12:37:57.012Z,3.60
2019-04-06T12:38:56.730Z,3.50
2019-04-06T12:39:56.963Z,3.00
2019-04-06T12:40:56.714Z,3.40
2019-04-06T12:41:57.041Z,3.40
2019-04-06T12:42:56.685Z,3.40
2019-04-06T12:43:56.688Z,3.00
2019-04-06T12:44:56.667Z,4.00
2019-04-06T12:45:57.056Z,3.40
2019-04-06T12:46:56.645Z,3.40
2019-04-06T12:47:56.651Z,3.00
2019-04-06T12:48:56.691Z,3.10
2019-04-06T12:49:56.610Z,3.30
2019-04-06T12:50:56.651Z,3.70
2019-04-06T12:51:56.594Z,3.20
2019-04-06T12:52:56.910Z,3.40
2019-04-06T12:53:56.631Z,3.40
2019-04-06T12:54:56.595Z,3.10
2019-04-06T12:55:56.583Z,3.70
2019-04-06T12:56:56.533Z,3.50
2019-04-06T12:57:56.524Z,3.20
2019-04-06T12:58:56.516Z,3.80
2019-04-06T12:59:56.517Z,3.70
2019-04-06T13:00:56.491Z,3.90
2019-04-06T13:01:56.851Z,3.60
2019-04-06T13:02:56.469Z,3.90
2019-04-06T13:03:56.460Z,4.40
2019-04-06T13:04:56.764Z,4.10
2019-04-06T13:05:56.457Z,3.10
2019-04-06T13:06:56.773Z,3.90
2019-04-06T13:07:56.415Z,3.90
2019-04-06T13:08:56.401Z,3.60
2019-04-06T13:10:53.332Z,3.40
2019-04-06T13:11:53.339Z,3.30
2019-04-06T13:12:53.314Z,3.60
2019-04-06T13:13:53.300Z,3.40
2019-04-06T13:14:53.290Z,3.80
2019-04-06T13:15:53.288Z,3.50
2019-04-06T13:16:53.264Z,3.40
2019-04-06T13:17:53.270Z,3.60
2019-04-06T13:18:53.247Z,3.60
2019-04-06T13:19:53.238Z,3.70
2019-04-06T13:20:53.235Z,3.30
2019-04-06T13:21:53.212Z,3.70
2019-04-06T13:22:53.206Z,3.40